Карточка аэропорта UMKK

Внимание!
Информация на этой странице в стадии наполнения.
Если вы не увидели какой-то информации, или заметили неточность - пожалуйста сообщите нам!
Спасибо!
Команда RU-STAFF
Название аэропортаХраброво
Название аэропорта (англ.)Khrabrovo
Превышение43 ft. (13.1 m.)
Координаты54°53.4', 20°35.55'
Высота перехода4000ft
Эшелон переходаFL50 (QNH>=1013hPa); FL60 (QNH<1013hPa); FL50 (QNH<977hPa);
Коды ответчика6620-6637
Зона ОрВДКалининград РПИ (UMKK)
Данные METARUMKK 241100Z 18006MPS 9999 SCT009 OVC018 09/08 Q0997 R24/290195 NOSIG RMK QFE747/0996
Проноз погоды (TAF)UMKK 240753Z 2409/2509 18008G14MPS 6000 -RA SCT006 OVC016 TEMPO 2409/2415 2400 -SHRA BR BKN004 BKN012CB BECMG 2412/2414 26010G17MPS FM241500 18003G10MPS 9999 SCT020 TEMPO 2415/2418 24005G10MPS BKN010
NOTAMshow/hide NOTAM
AWOS   TABLE

Информация о ВПП

ВПП Длина ВПП (м.) Покрытие Курс ВПП Частота ILS
063350Асфальтобетон60110.3
243350Асфальтобетон240109.5

Диспетчерские позиции

Позывной Наименование органа УВД Частота
UMKK_TWRКалининград-Вышка127.2
UMKK_APPКалининград-Подход126.0



Спутниковое изображение